Time;durP1;ratioP1;P1;durP2;ratioP2;P2;SDS_P1;SDS_P2;PMS_P1;PMS_P2;Temp;Humidity;BMP_temperature;BMP_pressure;BME280_temperature;BME280_humidity;BME280_pressure;Samples;Min_cycle;Max_cycle;Signal;HPM_P1;HPM_P2
2022/07/12 00:01:32;;;;;;;0.35;0.30;;;16.20;99.90;;;;;;5056114;28;20387;-83
2022/07/12 00:03:59;;;;;;;0.43;0.30;;;16.20;99.90;;;;;;5056521;28;20105;-84
2022/07/12 00:06:25;;;;;;;0.17;0.15;;;16.20;99.90;;;;;;5072569;28;20045;-82
2022/07/12 00:08:52;;;;;;;0.05;0.05;;;16.20;99.90;;;;;;5091747;28;20172;-85
2022/07/12 00:11:19;;;;;;;0.30;0.30;;;16.20;99.90;;;;;;5076507;28;20570;-84
2022/07/12 00:13:47;;;;;;;0.80;0.47;;;16.20;99.90;;;;;;5060046;28;20044;-84
2022/07/12 00:16:14;;;;;;;0.50;0.40;;;16.20;99.90;;;;;;5059838;28;20153;-84
2022/07/12 00:18:41;;;;;;;0.30;0.22;;;16.10;99.90;;;;;;5077057;28;20072;-83
2022/07/12 00:21:08;;;;;;;0.10;0.10;;;16.20;99.90;;;;;;5043852;28;20033;-84
2022/07/12 00:23:35;;;;;;;0.32;0.32;;;16.10;99.90;;;;;;5043663;28;20097;-83
2022/07/12 00:26:04;;;;;;;0.38;0.30;;;16.10;99.90;;;;;;5076546;28;20049;-84
2022/07/12 00:28:31;;;;;;;0.43;0.32;;;16.10;99.90;;;;;;5076828;28;20625;-84
2022/07/12 00:30:59;;;;;;;0.13;0.13;;;16.10;99.90;;;;;;5076127;28;20122;-83
2022/07/12 00:33:27;;;;;;;0.20;0.20;;;16.10;99.90;;;;;;5076230;28;20079;-85
2022/07/12 00:35:54;;;;;;;0.63;0.28;;;16.10;99.90;;;;;;5092995;28;20497;-83
2022/07/12 00:38:21;;;;;;;0.63;0.40;;;16.10;99.90;;;;;;5059982;28;20047;-83
2022/07/12 00:40:49;;;;;;;0.43;0.30;;;16.10;99.90;;;;;;5076567;28;20040;-85
2022/07/12 00:43:16;;;;;;;0.70;0.52;;;16.10;99.90;;;;;;5059709;28;20097;-85
2022/07/12 00:45:42;;;;;;;0.55;0.40;;;16.10;99.90;;;;;;5076160;28;20044;-82
2022/07/12 00:48:10;;;;;;;0.25;0.25;;;16.10;99.90;;;;;;5042777;28;20101;-84
2022/07/12 00:50:37;;;;;;;0.63;0.40;;;16.10;99.90;;;;;;5076254;28;20040;-84
2022/07/12 00:53:03;;;;;;;0.28;0.22;;;16.10;99.90;;;;;;5076307;28;20471;-85
2022/07/12 00:55:30;;;;;;;0.20;0.10;;;16.00;99.90;;;;;;5059578;28;20504;-83
2022/07/12 00:57:57;;;;;;;0.10;0.10;;;16.10;99.90;;;;;;5059791;28;20107;-84
2022/07/12 01:00:26;;;;;;;0.32;0.32;;;16.10;99.90;;;;;;5059393;28;20062;-84
2022/07/12 01:02:55;;;;;;;0.57;0.43;;;16.00;99.90;;;;;;5075860;28;20504;-82
2022/07/12 01:05:22;;;;;;;0.40;0.32;;;16.00;99.90;;;;;;5075870;28;20040;-85
2022/07/12 01:07:50;;;;;;;0.73;0.47;;;16.00;99.90;;;;;;5092868;28;20052;-83
2022/07/12 01:10:17;;;;;;;0.13;0.10;;;16.00;99.90;;;;;;5074987;28;20131;-83
2022/07/12 01:12:44;;;;;;;0.20;0.20;;;16.00;99.90;;;;;;5058976;28;20111;-83
2022/07/12 01:15:10;;;;;;;0.55;0.50;;;16.00;99.90;;;;;;5075345;28;20045;-84
2022/07/12 01:17:39;;;;;;;0.93;0.50;;;15.90;99.90;;;;;;5059028;28;20051;-83
2022/07/12 01:20:07;;;;;;;0.38;0.25;;;15.90;99.90;;;;;;5074403;28;20044;-83
2022/07/12 01:22:36;;;;;;;0.30;0.30;;;15.90;99.90;;;;;;5059136;28;20044;-83
2022/07/12 01:25:04;;;;;;;0.45;0.38;;;15.80;99.90;;;;;;5059543;28;20036;-83
2022/07/12 01:27:31;;;;;;;0.50;0.38;;;15.90;99.90;;;;;;5042594;28;20036;-84
2022/07/12 01:29:58;;;;;;;0.30;0.30;;;15.90;99.90;;;;;;5042772;28;20037;-85
2022/07/12 01:32:25;;;;;;;0.52;0.20;;;15.80;99.90;;;;;;5058944;28;20486;-83
2022/07/12 01:34:57;;;;;;;0.20;0.20;;;15.80;99.90;;;;;;5058793;28;20039;-85
2022/07/12 01:37:27;;;;;;;0.28;0.20;;;15.80;99.90;;;;;;5074684;28;20052;-85
2022/07/12 01:39:56;;;;;;;0.57;0.40;;;15.80;99.90;;;;;;5075050;28;20070;-83
2022/07/12 01:42:25;;;;;;;0.40;0.30;;;15.80;99.90;;;;;;5091887;28;20039;-84
2022/07/12 01:44:54;;;;;;;0.30;0.22;;;15.80;99.90;;;;;;5074968;28;20695;-83
2022/07/12 01:47:22;;;;;;;0.30;0.30;;;15.80;99.90;;;;;;5091192;28;20404;-84
2022/07/12 01:49:49;;;;;;;0.20;0.20;;;15.80;99.90;;;;;;5059372;28;20052;-83
2022/07/12 01:52:17;;;;;;;0.20;0.20;;;15.80;99.90;;;;;;5057903;28;20128;-82
2022/07/12 01:54:43;;;;;;;0.65;0.45;;;15.80;99.90;;;;;;5058686;28;20048;-83
2022/07/12 01:57:10;;;;;;;0.30;0.20;;;15.80;99.90;;;;;;5074833;28;20044;-84
2022/07/12 01:59:39;;;;;;;0.25;0.25;;;15.80;99.90;;;;;;5042231;28;20028;-85
2022/07/12 02:02:07;;;;;;;0.68;0.38;;;15.80;99.90;;;;;;5058264;28;20124;-84
2022/07/12 02:04:34;;;;;;;0.73;0.40;;;15.70;99.90;;;;;;5074837;28;20386;-83
2022/07/12 02:07:03;;;;;;;0.85;0.40;;;15.70;99.90;;;;;;5074871;28;20048;-83
2022/07/12 02:09:29;;;;;;;0.80;0.38;;;15.70;99.90;;;;;;5074223;28;20523;-84
2022/07/12 02:11:56;;;;;;;0.32;0.30;;;15.70;99.90;;;;;;5058212;28;20043;-84
2022/07/12 02:14:23;;;;;;;0.82;0.35;;;15.70;99.90;;;;;;5041423;28;20089;-83
2022/07/12 02:16:50;;;;;;;0.60;0.50;;;15.70;99.90;;;;;;5074527;28;20101;-83
2022/07/12 02:19:17;;;;;;;0.30;0.30;;;15.70;99.90;;;;;;5058506;28;20568;-82
2022/07/12 02:21:43;;;;;;;0.28;0.28;;;15.70;99.90;;;;;;5057952;28;20417;-84
2022/07/12 02:24:10;;;;;;;0.10;0.10;;;15.70;99.90;;;;;;5074450;28;20553;-82
2022/07/12 02:26:37;;;;;;;0.68;0.30;;;15.70;99.90;;;;;;5074198;28;20106;-85
2022/07/12 02:29:05;;;;;;;0.30;0.28;;;15.60;99.90;;;;;;5074037;28;20074;-83
2022/07/12 02:31:32;;;;;;;0.20;0.20;;;15.60;99.90;;;;;;5057127;28;20550;-83
2022/07/12 02:33:59;;;;;;;0.57;0.40;;;15.60;99.90;;;;;;5073803;28;20040;-85
2022/07/12 02:36:27;;;;;;;0.40;0.40;;;15.60;99.90;;;;;;5057167;28;20520;-84
2022/07/12 02:38:54;;;;;;;0.93;0.60;;;15.60;99.90;;;;;;5057652;28;20044;-84
2022/07/12 02:41:21;;;;;;;0.47;0.40;;;15.60;99.90;;;;;;5073749;28;20033;-83
2022/07/12 02:43:47;;;;;;;0.13;0.13;;;15.50;99.90;;;;;;5075159;28;20039;-85
2022/07/12 02:46:14;;;;;;;0.47;0.35;;;15.50;99.90;;;;;;5076176;28;20097;-82
2022/07/12 02:48:41;;;;;;;0.13;0.10;;;15.50;99.90;;;;;;5090529;28;20328;-85
2022/07/12 02:51:09;;;;;;;0.52;0.38;;;15.40;99.90;;;;;;5090550;28;20555;-85
2022/07/12 02:53:36;;;;;;;0.77;0.40;;;15.40;99.90;;;;;;5084217;28;20040;-82
2022/07/12 02:56:03;;;;;;;0.60;0.35;;;15.30;99.90;;;;;;5090669;28;20044;-83
2022/07/12 02:58:30;;;;;;;0.50;0.40;;;15.30;99.90;;;;;;5057034;28;20063;-86
2022/07/12 03:00:57;;;;;;;0.10;0.10;;;15.20;99.90;;;;;;5090257;28;20079;-83
2022/07/12 03:03:24;;;;;;;0.10;0.10;;;15.20;99.90;;;;;;5056840;28;20072;-83
2022/07/12 03:05:50;;;;;;;0.25;0.22;;;15.20;99.90;;;;;;5056676;28;20044;-82
2022/07/12 03:08:17;;;;;;;0.28;0.17;;;15.10;99.90;;;;;;5090170;28;20090;-85
2022/07/12 03:10:44;;;;;;;0.20;0.20;;;15.10;99.90;;;;;;5073063;28;20044;-83
2022/07/12 03:13:10;;;;;;;0.20;0.20;;;15.00;99.90;;;;;;5073247;28;20087;-84
2022/07/12 03:15:37;;;;;;;0.10;0.10;;;15.00;99.90;;;;;;5039731;28;20764;-83
2022/07/12 03:18:04;;;;;;;0.25;0.25;;;15.00;99.90;;;;;;5089970;28;20390;-85
2022/07/12 03:20:31;;;;;;;0.38;0.32;;;15.10;99.90;;;;;;5072662;28;20450;-83
2022/07/12 03:22:58;;;;;;;0.20;0.20;;;15.10;99.90;;;;;;5040269;28;20090;-83
2022/07/12 03:25:24;;;;;;;0.45;0.28;;;15.10;99.90;;;;;;5056804;28;20175;-83
2022/07/12 03:27:51;;;;;;;0.20;0.20;;;15.10;99.90;;;;;;5040212;28;20572;-84
2022/07/12 03:30:18;;;;;;;0.25;0.25;;;15.10;99.90;;;;;;5055405;28;20040;-83
2022/07/12 03:32:45;;;;;;;0.20;0.20;;;15.10;99.90;;;;;;5072366;28;20127;-82
2022/07/12 03:35:11;;;;;;;0.28;0.28;;;15.10;99.90;;;;;;5040231;28;20043;-84
2022/07/12 03:37:46;;;;;;;0.20;0.13;;;15.10;99.90;;;;;;5039575;28;20084;-83
2022/07/12 03:40:14;;;;;;;0.20;0.20;;;15.10;99.90;;;;;;5072878;28;20040;-82
2022/07/12 03:42:42;;;;;;;0.35;0.10;;;15.10;99.90;;;;;;5055916;28;20749;-82
2022/07/12 03:45:10;;;;;;;0.10;0.10;;;15.10;99.90;;;;;;5073217;28;20051;-82
2022/07/12 03:47:37;;;;;;;0.28;0.25;;;15.10;99.90;;;;;;5072567;28;20037;-84
2022/07/12 03:50:06;;;;;;;0.20;0.17;;;15.10;99.90;;;;;;5056943;28;20043;-86
2022/07/12 03:52:33;;;;;;;0.70;0.40;;;15.10;99.90;;;;;;5072969;28;20043;-82
2022/07/12 03:55:02;;;;;;;0.00;0.00;;;15.10;99.90;;;;;;5072690;28;20127;-82
2022/07/12 03:57:29;;;;;;;0.43;0.30;;;15.10;99.90;;;;;;5056301;28;20043;-84
2022/07/12 03:59:56;;;;;;;0.28;0.22;;;15.20;99.90;;;;;;5056489;28;20075;-85
2022/07/12 04:02:23;;;;;;;0.13;0.13;;;15.20;99.90;;;;;;5056792;28;20033;-84
2022/07/12 04:04:51;;;;;;;0.20;0.20;;;15.20;99.90;;;;;;5072620;28;20404;-85
2022/07/12 04:07:18;;;;;;;0.75;0.40;;;15.20;99.90;;;;;;5040349;28;20047;-85
2022/07/12 04:09:45;;;;;;;0.63;0.40;;;15.20;99.90;;;;;;5089232;28;20043;-84
2022/07/12 04:12:12;;;;;;;0.10;0.10;;;15.20;99.90;;;;;;5056098;28;20052;-82
2022/07/12 04:14:39;;;;;;;0.30;0.20;;;15.20;99.90;;;;;;5055956;28;20044;-84
2022/07/12 04:17:06;;;;;;;0.10;0.10;;;15.20;99.90;;;;;;5039993;28;20037;-84
2022/07/12 04:19:33;;;;;;;0.08;0.05;;;15.20;99.90;;;;;;5072418;28;20036;-84
2022/07/12 04:22:00;;;;;;;0.22;0.22;;;15.20;99.90;;;;;;5056258;28;20044;-85
2022/07/12 04:24:27;;;;;;;0.20;0.20;;;15.20;99.90;;;;;;5056217;28;20048;-84
2022/07/12 04:26:54;;;;;;;0.10;0.10;;;15.20;99.90;;;;;;5072067;28;20040;-85
2022/07/12 04:29:21;;;;;;;0.22;0.10;;;15.20;99.90;;;;;;5072809;28;20044;-84
2022/07/12 04:31:48;;;;;;;0.10;0.10;;;15.20;99.90;;;;;;5072252;28;20063;-82
2022/07/12 04:34:16;;;;;;;0.20;0.20;;;15.20;99.90;;;;;;5072245;28;20040;-82
2022/07/12 04:36:47;;;;;;;0.00;0.00;;;15.20;99.90;;;;;;5072230;28;20048;-85
2022/07/12 04:39:14;;;;;;;0.85;0.22;;;15.20;99.90;;;;;;5072328;28;20489;-82
2022/07/12 04:41:41;;;;;;;0.10;0.10;;;15.20;99.90;;;;;;5072255;28;20047;-84
2022/07/12 04:44:08;;;;;;;0.13;0.13;;;15.20;99.90;;;;;;5056246;28;20561;-83
2022/07/12 04:46:35;;;;;;;0.20;0.20;;;15.20;99.90;;;;;;5072731;28;20099;-84
2022/07/12 04:49:02;;;;;;;0.10;0.10;;;15.20;99.90;;;;;;5088551;28;20045;-82
2022/07/12 04:51:28;;;;;;;0.13;0.10;;;15.30;99.90;;;;;;5055675;28;20063;-85
2022/07/12 04:53:55;;;;;;;0.38;0.30;;;15.30;99.90;;;;;;5072402;28;20044;-83
2022/07/12 04:56:22;;;;;;;0.30;0.25;;;15.30;99.90;;;;;;5059482;28;20135;-82
2022/07/12 04:58:49;;;;;;;0.32;0.20;;;15.30;99.90;;;;;;5058963;28;20075;-82
2022/07/12 05:01:16;;;;;;;0.40;0.30;;;15.30;99.90;;;;;;5075892;28;20146;-83
2022/07/12 05:03:43;;;;;;;0.20;0.10;;;15.40;99.90;;;;;;5059327;28;20044;-84
2022/07/12 05:06:10;;;;;;;0.35;0.13;;;15.30;99.90;;;;;;5059316;28;20135;-83
2022/07/12 05:08:36;;;;;;;0.80;0.35;;;15.40;99.90;;;;;;5042696;28;20782;-82
2022/07/12 05:11:03;;;;;;;0.50;0.20;;;15.40;99.90;;;;;;5042639;28;20041;-85
2022/07/12 05:13:30;;;;;;;0.17;0.17;;;15.40;99.90;;;;;;5059124;28;20048;-84
2022/07/12 05:15:57;;;;;;;0.00;0.00;;;15.40;99.90;;;;;;5058489;28;20058;-83
2022/07/12 05:18:24;;;;;;;0.20;0.20;;;15.40;99.90;;;;;;5075474;28;20090;-84
2022/07/12 05:20:50;;;;;;;0.20;0.20;;;15.40;99.90;;;;;;5059113;28;20047;-84
2022/07/12 05:23:17;;;;;;;0.13;0.10;;;15.50;99.90;;;;;;5042528;28;20579;-82
2022/07/12 05:25:44;;;;;;;0.38;0.20;;;15.60;99.90;;;;;;5075087;28;20044;-84
2022/07/12 05:28:10;;;;;;;0.10;0.10;;;15.60;99.90;;;;;;5075467;28;20124;-84
2022/07/12 05:30:37;;;;;;;0.63;0.40;;;15.60;99.90;;;;;;5042876;28;20508;-84
2022/07/12 05:33:04;;;;;;;0.25;0.20;;;15.60;99.90;;;;;;5042051;28;20068;-84
2022/07/12 05:35:30;;;;;;;0.20;0.20;;;15.60;99.90;;;;;;5075177;28;20036;-82
2022/07/12 05:37:57;;;;;;;0.45;0.30;;;15.70;99.90;;;;;;5074745;28;20505;-83
2022/07/12 05:40:24;;;;;;;0.30;0.20;;;15.60;99.90;;;;;;5058621;28;20033;-85
2022/07/12 05:42:51;;;;;;;0.70;0.50;;;15.70;99.90;;;;;;5058211;28;20105;-84
2022/07/12 05:45:17;;;;;;;0.68;0.40;;;15.70;99.90;;;;;;5042867;28;20037;-84
2022/07/12 05:47:45;;;;;;;0.80;0.52;;;15.70;99.90;;;;;;5058449;28;20508;-83
2022/07/12 05:50:11;;;;;;;0.32;0.32;;;15.80;99.90;;;;;;5042481;28;20047;-82
2022/07/12 05:55:23;;;;;;;0.63;0.50;;;15.80;99.90;;;;;;5093183;28;20147;-83
2022/07/12 05:57:50;;;;;;;0.95;0.60;;;15.90;99.90;;;;;;5094611;28;20135;-84
2022/07/12 06:00:17;;;;;;;0.38;0.25;;;16.00;99.90;;;;;;5075271;28;20047;-84
2022/07/12 06:02:43;;;;;;;0.70;0.43;;;16.00;99.90;;;;;;5101316;28;20064;-84
2022/07/12 06:05:10;;;;;;;0.73;0.40;;;16.00;99.90;;;;;;5090007;28;20098;-85
2022/07/12 06:07:37;;;;;;;0.60;0.30;;;16.10;99.90;;;;;;5074258;28;20400;-85
2022/07/12 06:10:04;;;;;;;0.52;0.40;;;16.20;99.90;;;;;;5081131;28;20086;-83
2022/07/12 06:12:30;;;;;;;0.40;0.30;;;16.30;99.90;;;;;;5058297;28;20036;-82
2022/07/12 06:14:57;;;;;;;0.40;0.40;;;16.40;99.90;;;;;;5057871;28;20033;-85
2022/07/12 06:17:24;;;;;;;0.30;0.30;;;16.40;99.90;;;;;;5075078;28;20059;-87
2022/07/12 06:19:51;;;;;;;0.32;0.30;;;16.50;99.90;;;;;;5042167;28;20041;-86
2022/07/12 06:22:18;;;;;;;0.50;0.47;;;16.50;99.90;;;;;;5058821;28;20086;-86
2022/07/12 06:24:45;;;;;;;1.15;0.63;;;16.60;99.90;;;;;;5049358;28;20039;-85
2022/07/12 06:27:12;;;;;;;0.80;0.43;;;16.70;99.90;;;;;;5074260;28;20040;-84
2022/07/12 06:29:38;;;;;;;0.63;0.35;;;16.70;99.90;;;;;;5042087;28;20044;-86
2022/07/12 06:32:05;;;;;;;0.82;0.50;;;16.80;99.90;;;;;;5079566;28;20041;-84
2022/07/12 06:34:35;;;;;;;0.93;0.50;;;16.90;99.90;;;;;;5042219;28;20082;-86
2022/07/12 06:37:02;;;;;;;0.98;0.50;;;17.00;99.90;;;;;;5074195;28;20044;-86
2022/07/12 06:39:29;;;;;;;0.63;0.50;;;17.00;99.90;;;;;;5059004;28;20511;-86
2022/07/12 06:41:55;;;;;;;0.52;0.43;;;17.00;99.90;;;;;;5100625;28;20496;-84
2022/07/12 06:44:22;;;;;;;0.28;0.28;;;17.00;99.90;;;;;;5107676;28;20397;-86
2022/07/12 06:46:49;;;;;;;1.42;0.70;;;17.10;99.90;;;;;;5074221;28;20482;-85
2022/07/12 06:49:16;;;;;;;0.35;0.25;;;17.10;99.90;;;;;;5077250;28;20040;-86
2022/07/12 06:51:42;;;;;;;1.13;0.60;;;17.20;99.90;;;;;;5074399;28;20135;-86
2022/07/12 06:54:09;;;;;;;1.65;0.77;;;17.30;99.90;;;;;;5051983;28;20036;-85
2022/07/12 06:56:35;;;;;;;0.63;0.57;;;17.40;99.90;;;;;;5090544;28;20044;-85
2022/07/12 06:59:02;;;;;;;0.73;0.40;;;17.50;99.90;;;;;;5120998;28;20071;-83
2022/07/12 07:01:29;;;;;;;0.70;0.63;;;17.60;99.90;;;;;;5074086;28;20040;-84
2022/07/12 07:03:56;;;;;;;0.75;0.40;;;17.70;99.90;;;;;;5067826;28;20036;-86
2022/07/12 07:06:22;;;;;;;0.90;0.50;;;17.70;99.90;;;;;;5078913;28;20047;-85
2022/07/12 07:08:49;;;;;;;1.02;0.50;;;17.80;99.90;;;;;;5041087;28;20508;-86
2022/07/12 07:11:16;;;;;;;0.63;0.47;;;17.90;99.90;;;;;;5040800;28;20037;-85
2022/07/12 07:13:42;;;;;;;0.82;0.60;;;18.00;99.90;;;;;;5057486;28;20521;-86
2022/07/12 07:16:09;;;;;;;0.98;0.50;;;18.10;99.90;;;;;;5051641;28;20502;-86
2022/07/12 07:18:35;;;;;;;0.93;0.50;;;18.10;99.90;;;;;;5054032;28;20048;-86
2022/07/12 07:21:02;;;;;;;1.55;0.52;;;18.20;99.90;;;;;;5085977;28;20042;-85
2022/07/12 07:23:29;;;;;;;0.50;0.28;;;18.20;99.90;;;;;;5075430;28;20083;-85
2022/07/12 07:25:56;;;;;;;0.77;0.52;;;18.30;99.90;;;;;;5093686;28;20077;-84
2022/07/12 07:28:22;;;;;;;0.95;0.68;;;18.30;99.90;;;;;;5092162;28;20498;-85
2022/07/12 07:30:52;;;;;;;0.47;0.38;;;18.40;99.90;;;;;;5040390;28;20029;-84
2022/07/12 07:33:23;;;;;;;0.20;0.20;;;18.40;99.90;;;;;;5068636;28;20036;-84
2022/07/12 07:35:51;;;;;;;0.55;0.47;;;18.60;99.90;;;;;;5080632;28;20051;-86
2022/07/12 07:38:18;;;;;;;0.88;0.55;;;18.70;99.90;;;;;;5127979;28;20044;-84
2022/07/12 07:40:45;;;;;;;0.95;0.52;;;18.80;99.90;;;;;;5098920;28;20074;-87
2022/07/12 07:43:12;;;;;;;0.30;0.20;;;18.90;99.90;;;;;;5056410;28;20485;-84
2022/07/12 07:45:39;;;;;;;0.93;0.63;;;19.00;99.90;;;;;;5072983;28;20042;-85
2022/07/12 07:48:05;;;;;;;0.30;0.30;;;19.00;99.90;;;;;;5050020;28;20044;-86
2022/07/12 07:50:32;;;;;;;0.40;0.35;;;19.00;99.90;;;;;;5064273;28;20048;-84
2022/07/12 07:52:59;;;;;;;1.13;0.52;;;18.90;99.90;;;;;;5087788;28;20456;-85
2022/07/12 07:55:26;;;;;;;0.57;0.32;;;18.90;99.90;;;;;;5089426;28;20370;-85
2022/07/12 07:57:53;;;;;;;0.47;0.45;;;19.00;99.90;;;;;;5071830;28;20036;-85
2022/07/12 08:00:20;;;;;;;0.80;0.40;;;19.10;99.90;;;;;;5085815;28;20143;-84
2022/07/12 08:02:46;;;;;;;0.32;0.30;;;19.20;99.90;;;;;;5054242;28;20051;-85
2022/07/12 08:05:13;;;;;;;0.43;0.38;;;19.30;99.90;;;;;;5054952;28;20540;-85
2022/07/12 08:07:40;;;;;;;0.90;0.40;;;19.50;99.90;;;;;;5072776;28;20041;-85
2022/07/12 08:10:07;;;;;;;0.43;0.38;;;19.60;99.90;;;;;;5071817;28;20080;-84
2022/07/12 08:12:34;;;;;;;0.77;0.55;;;19.60;99.90;;;;;;5093761;28;20626;-86
2022/07/12 08:15:01;;;;;;;0.40;0.38;;;19.80;99.90;;;;;;5077751;28;20112;-86
2022/07/12 08:17:28;;;;;;;0.32;0.30;;;19.90;99.90;;;;;;5039711;28;20082;-86
2022/07/12 08:19:55;;;;;;;0.60;0.40;;;19.90;99.90;;;;;;5092591;28;20122;-85
2022/07/12 08:22:21;;;;;;;0.80;0.50;;;19.90;99.90;;;;;;5072462;28;20123;-82
2022/07/12 08:24:49;;;;;;;0.73;0.60;;;20.10;99.90;;;;;;5075179;28;20040;-85
2022/07/12 08:27:16;;;;;;;0.75;0.47;;;20.20;99.90;;;;;;5059327;28;20477;-87
2022/07/12 08:29:43;;;;;;;0.43;0.38;;;20.30;99.90;;;;;;5072636;28;20044;-87
2022/07/12 08:32:09;;;;;;;0.30;0.30;;;20.40;99.90;;;;;;5043228;28;20565;-87
2022/07/12 08:34:36;;;;;;;0.35;0.35;;;20.50;99.90;;;;;;5060132;28;20040;-84
2022/07/12 08:37:03;;;;;;;1.63;0.82;;;20.70;99.90;;;;;;5043320;28;20131;-84
2022/07/12 08:39:30;;;;;;;0.50;0.50;;;20.90;99.90;;;;;;5043281;28;20585;-87
2022/07/12 08:41:57;;;;;;;0.95;0.73;;;21.00;99.90;;;;;;5043716;28;20151;-83
2022/07/12 08:44:23;;;;;;;1.17;0.68;;;21.20;99.90;;;;;;5044148;28;20043;-87
2022/07/12 08:46:52;;;;;;;0.85;0.50;;;21.30;99.90;;;;;;5043540;28;20512;-87
2022/07/12 08:49:20;;;;;;;0.45;0.35;;;21.40;99.90;;;;;;5059553;28;20048;-86
2022/07/12 08:51:48;;;;;;;0.95;0.52;;;21.40;99.90;;;;;;5060154;28;20052;-87
2022/07/12 08:54:18;;;;;;;0.30;0.30;;;21.30;99.90;;;;;;5043201;28;20044;-84
2022/07/12 08:56:45;;;;;;;0.30;0.30;;;21.40;99.90;;;;;;5043664;28;20803;-86
2022/07/12 08:59:15;;;;;;;0.43;0.30;;;21.40;99.90;;;;;;5075583;28;20040;-86
2022/07/12 09:01:53;;;;;;;0.60;0.50;;;21.40;99.90;;;;;;5076776;28;20083;-85
2022/07/12 09:04:22;;;;;;;0.40;0.30;;;21.30;99.90;;;;;;5092368;28;20075;-87
2022/07/12 09:06:49;;;;;;;0.65;0.50;;;21.40;99.90;;;;;;5075489;28;20044;-87
2022/07/12 09:09:27;;;;;;;0.55;0.50;;;21.50;99.90;;;;;;5076460;28;20036;-84
2022/07/12 09:11:54;;;;;;;0.68;0.50;;;21.70;99.90;;;;;;5076078;28;20527;-87
2022/07/12 09:14:22;;;;;;;1.02;0.60;;;21.80;99.90;;;;;;5064257;28;20072;-84
2022/07/12 09:17:04;;;;;;;0.68;0.38;;;21.90;99.90;;;;;;5075945;28;20079;-84
2022/07/12 09:19:31;;;;;;;0.52;0.50;;;21.90;99.90;;;;;;5093158;28;20050;-85
2022/07/12 09:21:58;;;;;;;0.40;0.40;;;22.00;99.90;;;;;;5080359;28;20411;-85
2022/07/12 09:24:26;;;;;;;0.65;0.50;;;22.20;99.90;;;;;;5075047;28;20032;-84
2022/07/12 09:27:02;;;;;;;0.73;0.40;;;22.30;99.90;;;;;;5076114;28;20062;-84
2022/07/12 09:29:29;;;;;;;0.47;0.40;;;22.30;99.90;;;;;;5075485;28;20044;-87
2022/07/12 09:37:40;;;;;;;0.20;0.20;;;22.60;99.90;;;;;;5056268;28;20139;-87
2022/07/12 09:40:09;;;;;;;0.30;0.30;;;22.50;99.90;;;;;;5075544;28;20568;-86
2022/07/12 09:42:37;;;;;;;0.38;0.32;;;22.40;99.90;;;;;;5074385;28;20041;-87
2022/07/12 09:45:07;;;;;;;0.30;0.30;;;22.40;99.90;;;;;;5042531;28;20107;-84
2022/07/12 09:47:34;;;;;;;0.65;0.47;;;22.40;99.90;;;;;;5075114;28;20512;-87
2022/07/12 09:50:03;;;;;;;0.50;0.40;;;22.50;99.90;;;;;;5059283;28;20081;-87
2022/07/12 09:52:32;;;;;;;1.08;0.60;;;22.50;99.90;;;;;;5075167;28;20405;-84
2022/07/12 09:55:02;;;;;;;0.95;0.60;;;22.50;99.90;;;;;;5091471;28;20485;-84
2022/07/12 09:57:34;;;;;;;0.50;0.50;;;22.60;99.90;;;;;;5074605;28;20075;-87
2022/07/12 10:00:03;;;;;;;0.77;0.60;;;22.50;99.90;;;;;;5074887;28;20041;-85
2022/07/12 10:02:31;;;;;;;0.40;0.40;;;22.50;99.90;;;;;;5074214;28;20601;-86
2022/07/12 10:04:59;;;;;;;0.20;0.20;;;22.70;99.90;;;;;;5042314;28;20512;-86
2022/07/12 10:07:26;;;;;;;0.80;0.60;;;22.80;99.90;;;;;;5075657;28;20044;-86
2022/07/12 10:09:54;;;;;;;0.80;0.60;;;23.00;99.90;;;;;;5058017;28;20062;-87
2022/07/12 10:12:23;;;;;;;0.77;0.55;;;23.10;99.90;;;;;;5074847;28;20073;-86
2022/07/12 10:15:03;;;;;;;0.47;0.43;;;23.10;99.90;;;;;;5078344;28;20041;-86
2022/07/12 10:17:32;;;;;;;0.55;0.40;;;23.20;99.90;;;;;;5094089;28;20500;-85
2022/07/12 10:20:28;;;;;;;0.70;0.40;;;23.20;99.90;;;;;;5094636;28;20125;-87
2022/07/12 10:23:34;;;;;;;0.98;0.63;;;23.40;99.90;;;;;;5063074;28;20051;-86
2022/07/12 10:26:14;;;;;;;0.80;0.57;;;23.60;99.90;;;;;;5054237;28;20528;-86
2022/07/12 10:29:00;;;;;;;1.25;0.77;;;23.70;99.90;;;;;;5054662;28;20087;-86
2022/07/12 10:31:37;;;;;;;1.50;0.50;;;23.70;99.90;;;;;;5054063;28;20131;-86
2022/07/12 10:34:14;;;;;;;0.43;0.40;;;23.70;99.90;;;;;;5067471;28;20040;-89
2022/07/12 10:37:07;;;;;;;0.60;0.43;;;23.70;99.90;;;;;;5126673;28;20124;-88
2022/07/12 10:39:33;;;;;;;0.60;0.45;;;23.70;99.90;;;;;;5060386;28;20072;-87
2022/07/12 10:42:15;;;;;;;0.40;0.38;;;23.70;99.90;;;;;;5077676;28;20101;-87
2022/07/12 10:44:45;;;;;;;0.55;0.47;;;23.70;99.90;;;;;;5096389;28;20518;-88
2022/07/12 10:47:15;;;;;;;0.52;0.40;;;23.80;99.90;;;;;;5119936;28;20063;-88
2022/07/12 10:49:52;;;;;;;0.28;0.28;;;23.90;99.90;;;;;;5091392;28;20401;-87
2022/07/12 10:52:24;;;;;;;0.40;0.40;;;24.00;99.90;;;;;;5059982;28;20067;-88
2022/07/12 10:54:56;;;;;;;0.82;0.50;;;24.00;99.90;;;;;;5072906;28;20045;-87
2022/07/12 10:57:49;;;;;;;0.50;0.40;;;24.10;99.90;;;;;;5073136;28;20559;-87
2022/07/12 11:00:16;;;;;;;0.35;0.30;;;24.20;99.90;;;;;;5080734;28;20051;-88
2022/07/12 11:02:43;;;;;;;0.95;0.63;;;24.20;99.90;;;;;;5091017;28;20043;-88
2022/07/12 11:05:10;;;;;;;0.40;0.40;;;24.30;99.90;;;;;;5071847;28;20513;-86
2022/07/12 11:07:38;;;;;;;0.55;0.40;;;24.40;99.90;;;;;;5054089;28;20074;-87
2022/07/12 11:10:05;;;;;;;0.28;0.28;;;24.50;99.90;;;;;;5052697;28;20040;-87
2022/07/12 11:12:33;;;;;;;0.45;0.30;;;24.50;99.90;;;;;;5083890;28;20039;-87
2022/07/12 11:15:00;;;;;;;0.20;0.20;;;24.50;99.90;;;;;;5080093;28;20456;-86
2022/07/12 11:17:30;;;;;;;0.43;0.30;;;24.50;99.90;;;;;;5061231;28;20043;-85
2022/07/12 11:20:12;;;;;;;0.30;0.30;;;24.50;99.90;;;;;;5124725;28;20034;-86
2022/07/12 11:22:41;;;;;;;0.35;0.25;;;24.70;99.90;;;;;;5118625;28;20032;-86
2022/07/12 11:25:09;;;;;;;0.57;0.43;;;24.90;99.90;;;;;;5058862;28;20066;-87
2022/07/12 11:27:37;;;;;;;0.32;0.30;;;24.80;99.90;;;;;;5076722;28;20548;-87
2022/07/12 11:30:05;;;;;;;0.47;0.30;;;24.80;99.90;;;;;;5091844;28;20036;-87
2022/07/12 11:32:43;;;;;;;0.10;0.10;;;24.80;99.90;;;;;;5073105;28;20051;-86
2022/07/12 11:35:20;;;;;;;0.30;0.30;;;24.90;99.90;;;;;;5106310;28;20123;-86
2022/07/12 11:37:55;;;;;;;0.25;0.25;;;24.90;99.90;;;;;;5071187;28;20054;-87
2022/07/12 11:40:27;;;;;;;0.30;0.30;;;24.90;99.90;;;;;;5072959;28;20033;-86
2022/07/12 11:42:55;;;;;;;0.35;0.30;;;25.00;99.90;;;;;;5056848;28;20119;-86
2022/07/12 11:45:22;;;;;;;0.10;0.10;;;25.00;99.90;;;;;;5072186;28;20470;-86
2022/07/12 11:47:49;;;;;;;0.20;0.20;;;25.00;99.90;;;;;;5056941;28;20032;-86
2022/07/12 11:50:18;;;;;;;0.50;0.40;;;25.00;99.90;;;;;;5039665;28;20036;-86
2022/07/12 11:52:46;;;;;;;0.22;0.20;;;24.90;99.90;;;;;;5055795;28;20127;-85
2022/07/12 11:55:12;;;;;;;0.40;0.30;;;24.90;99.90;;;;;;5056492;28;20094;-86
2022/07/12 11:57:39;;;;;;;0.25;0.25;;;24.80;99.90;;;;;;5039792;28;20037;-86
2022/07/12 12:00:20;;;;;;;0.30;0.30;;;24.70;99.90;;;;;;5055963;28;20573;-86
2022/07/12 12:02:54;;;;;;;0.20;0.20;;;24.80;99.90;;;;;;5083709;28;20059;-86
2022/07/12 12:05:21;;;;;;;0.17;0.17;;;24.70;99.90;;;;;;5114758;28;20123;-86
2022/07/12 12:07:47;;;;;;;0.30;0.30;;;24.80;99.90;;;;;;5110068;28;20115;-85
2022/07/12 12:10:16;;;;;;;0.25;0.25;;;24.80;99.90;;;;;;5095958;28;20093;-84
2022/07/12 12:12:57;;;;;;;0.20;0.20;;;24.80;99.90;;;;;;5095818;28;20143;-84
2022/07/12 12:15:26;;;;;;;0.20;0.20;;;24.80;99.90;;;;;;5067686;28;20123;-83
2022/07/12 12:17:57;;;;;;;0.20;0.20;;;24.90;99.90;;;;;;5070341;28;20407;-83
2022/07/12 12:20:29;;;;;;;0.30;0.30;;;25.10;99.90;;;;;;5099379;28;20123;-83
2022/07/12 12:22:58;;;;;;;0.30;0.28;;;25.00;99.90;;;;;;5095051;28;20036;-85
2022/07/12 12:25:27;;;;;;;0.20;0.20;;;25.10;99.90;;;;;;5079798;28;20040;-89
2022/07/12 12:27:59;;;;;;;0.10;0.10;;;25.20;99.90;;;;;;5063765;28;20036;-87
2022/07/12 12:30:30;;;;;;;0.20;0.20;;;25.20;99.90;;;;;;5112411;28;20072;-87
2022/07/12 12:32:58;;;;;;;0.10;0.10;;;25.10;99.90;;;;;;5079423;28;20437;-78
2022/07/12 12:35:35;;;;;;;0.28;0.22;;;25.20;99.90;;;;;;5067125;28;20036;-88
2022/07/12 12:38:13;;;;;;;0.30;0.30;;;25.30;99.90;;;;;;5078943;28;20075;-84
2022/07/12 12:40:49;;;;;;;0.20;0.20;;;25.40;99.90;;;;;;5078628;28;20507;-85
2022/07/12 12:43:20;;;;;;;0.28;0.20;;;25.70;99.90;;;;;;5078481;28;20032;-83
2022/07/12 12:45:54;;;;;;;0.10;0.10;;;25.80;99.90;;;;;;5075405;28;20032;-83
2022/07/12 12:48:26;;;;;;;0.22;0.22;;;26.00;99.90;;;;;;5107904;28;20501;-83
2022/07/12 12:50:54;;;;;;;0.32;0.20;;;26.10;99.90;;;;;;5075278;28;20045;-83
2022/07/12 12:53:23;;;;;;;0.20;0.20;;;26.10;99.90;;;;;;5114356;28;20127;-83
2022/07/12 12:55:52;;;;;;;0.17;0.13;;;26.20;99.90;;;;;;5078546;28;20045;-83
2022/07/12 12:58:20;;;;;;;0.38;0.30;;;26.30;99.90;;;;;;5078868;28;20133;-85
2022/07/12 13:00:48;;;;;;;0.20;0.20;;;26.40;99.90;;;;;;5062925;28;20043;-88
2022/07/12 13:03:17;;;;;;;0.20;0.20;;;26.40;99.90;;;;;;5062672;28;20033;-85